Westfield, NJ (07090)

12:23 AM EST on December 25, 2014 (GMT -0500)
Garwood | Change Station
CLOSE
Current Station
Personal Weather Station
Location: Garwood, NJ
Elevation: 102 ft
Nearby Weather Stations
Active Advisory: Special Statement Active Notice: Record Report

Elev 102 ft 40.65 °N, 74.33 °W | Updated 11 minutes ago

Fog
Fog
54.1 °F
Feels Like 54.1 °F
N
0.0
Wind Variable Wind from ENE

Today
High -- | Low -- °F
--% Chance of Precip.
Yesterday
High -- | Low -- °F
Precip. -- in
7:19 AM 4:35 PM
Waxing Crescent, 13% visible
Pressure 29.55 in
Visibility 1.5 miles
Clouds Overcast 1200 ft
Dew Point 54 °F
Humidity 99%
Rainfall 0.00 in
Snow Depth Not available.
UV 0 out of 12
Pollen .10 out of 12
Air Quality Not available.
Flu Activity Not available.
METAR KLDJ 250515Z AUTO 00000KT 1 1/2SM BR OVC012 15/14 A2955 RMK AO2 T01460143

More Conditions Fewer Conditions

Pressure 29.55 in
Visibility 1.5 miles
Clouds Overcast 1200 ft
Dew Point 54 °F
Humidity 99%
Rainfall 0.00 in
Snow Depth Not available.
UV 0 out of 12
Pollen .10 out of 12
Air Quality Not available.
Flu Activity Not available.
METAR KLDJ 250515Z AUTO 00000KT 1 1/2SM BR OVC012 15/14 A2955 RMK AO2 T01460143

More Conditions Fewer Conditions

10-Day Weather Forecast

Almanac

Astronomy

Dec. 25, 2014 Rise Set
Actual Time
Civil Twilight
Nautical Twilight
Astronomical Twilight
Moon
Length of Visible Light
Length of Day
Tomorrow will be .
, % of the Moon is Illuminated

Today's Extremes

State Highs State Lows

Community

WunderPhotos

Upload Photos

1,780,244 photos uploaded!

WunderBlogs® & News

Nearby

Air Quality

  Air Quality AQ Index Pollutant
Not available.

Snow Depth

Station Depth Elevation

Earthquake Activity

City Distance Mag. Time & Date
Minimum magnitude displayed is 2.5.

Coastal Water Temperatures

Place Temperature

Nearby Weather Stations